sensor_id;sensor_type;location;lat;lon;timestamp;P1;durP1;ratioP1;P2;durP2;ratioP2
17917;SDS011;9084;50.956;3.106;2022-12-07T00:01:09;7.87;;;4.10;;
17917;SDS011;9084;50.956;3.106;2022-12-07T00:03:40;5.37;;;4.13;;
17917;SDS011;9084;50.956;3.106;2022-12-07T00:06:08;4.73;;;3.63;;
17917;SDS011;9084;50.956;3.106;2022-12-07T00:08:35;4.67;;;4.23;;
17917;SDS011;9084;50.956;3.106;2022-12-07T00:11:06;4.97;;;3.90;;
17917;SDS011;9084;50.956;3.106;2022-12-07T00:13:34;4.10;;;3.40;;
17917;SDS011;9084;50.956;3.106;2022-12-07T00:16:09;4.30;;;3.90;;
17917;SDS011;9084;50.956;3.106;2022-12-07T00:18:42;6.23;;;3.63;;
17917;SDS011;9084;50.956;3.106;2022-12-07T00:21:12;4.03;;;3.33;;
17917;SDS011;9084;50.956;3.106;2022-12-07T00:23:39;4.87;;;3.57;;
17917;SDS011;9084;50.956;3.106;2022-12-07T00:26:06;5.00;;;3.53;;
17917;SDS011;9084;50.956;3.106;2022-12-07T00:28:37;5.20;;;3.87;;
17917;SDS011;9084;50.956;3.106;2022-12-07T00:31:05;6.67;;;3.47;;
17917;SDS011;9084;50.956;3.106;2022-12-07T00:33:33;4.53;;;3.57;;
17917;SDS011;9084;50.956;3.106;2022-12-07T00:35:59;3.70;;;3.30;;
17917;SDS011;9084;50.956;3.106;2022-12-07T00:38:28;4.17;;;3.37;;
17917;SDS011;9084;50.956;3.106;2022-12-07T00:40:59;5.90;;;3.40;;
17917;SDS011;9084;50.956;3.106;2022-12-07T00:43:45;5.40;;;3.43;;
17917;SDS011;9084;50.956;3.106;2022-12-07T00:46:13;4.63;;;3.13;;
17917;SDS011;9084;50.956;3.106;2022-12-07T00:48:40;4.93;;;3.30;;
17917;SDS011;9084;50.956;3.106;2022-12-07T00:51:06;3.77;;;3.33;;
17917;SDS011;9084;50.956;3.106;2022-12-07T00:53:34;5.30;;;3.80;;
17917;SDS011;9084;50.956;3.106;2022-12-07T00:56:08;4.73;;;3.17;;
17917;SDS011;9084;50.956;3.106;2022-12-07T00:58:36;4.47;;;3.23;;
17917;SDS011;9084;50.956;3.106;2022-12-07T01:01:02;6.47;;;3.00;;
17917;SDS011;9084;50.956;3.106;2022-12-07T01:03:32;5.57;;;2.97;;
17917;SDS011;9084;50.956;3.106;2022-12-07T01:05:58;5.47;;;3.13;;
17917;SDS011;9084;50.956;3.106;2022-12-07T01:08:25;4.47;;;3.43;;
17917;SDS011;9084;50.956;3.106;2022-12-07T01:11:03;3.90;;;2.70;;
17917;SDS011;9084;50.956;3.106;2022-12-07T01:13:30;4.13;;;2.53;;
17917;SDS011;9084;50.956;3.106;2022-12-07T01:16:04;5.50;;;2.90;;
17917;SDS011;9084;50.956;3.106;2022-12-07T01:18:32;5.10;;;2.40;;
17917;SDS011;9084;50.956;3.106;2022-12-07T01:21:11;6.30;;;2.90;;
17917;SDS011;9084;50.956;3.106;2022-12-07T01:23:38;4.07;;;3.37;;
17917;SDS011;9084;50.956;3.106;2022-12-07T01:26:06;6.77;;;3.10;;
17917;SDS011;9084;50.956;3.106;2022-12-07T01:28:35;5.50;;;3.33;;
17917;SDS011;9084;50.956;3.106;2022-12-07T01:31:04;6.10;;;3.40;;
17917;SDS011;9084;50.956;3.106;2022-12-07T01:33:33;7.13;;;4.23;;
17917;SDS011;9084;50.956;3.106;2022-12-07T01:36:04;6.57;;;4.03;;
17917;SDS011;9084;50.956;3.106;2022-12-07T01:38:31;7.90;;;3.97;;
17917;SDS011;9084;50.956;3.106;2022-12-07T01:40:58;5.63;;;3.63;;
17917;SDS011;9084;50.956;3.106;2022-12-07T01:43:26;8.17;;;3.70;;
17917;SDS011;9084;50.956;3.106;2022-12-07T01:45:53;4.67;;;3.60;;
17917;SDS011;9084;50.956;3.106;2022-12-07T01:48:30;7.03;;;3.73;;
17917;SDS011;9084;50.956;3.106;2022-12-07T01:51:08;5.37;;;3.53;;
17917;SDS011;9084;50.956;3.106;2022-12-07T01:53:38;9.00;;;3.70;;
17917;SDS011;9084;50.956;3.106;2022-12-07T01:56:06;7.27;;;3.63;;
17917;SDS011;9084;50.956;3.106;2022-12-07T01:58:38;8.97;;;3.70;;
17917;SDS011;9084;50.956;3.106;2022-12-07T02:01:04;6.13;;;3.70;;
17917;SDS011;9084;50.956;3.106;2022-12-07T02:03:31;5.50;;;3.00;;
17917;SDS011;9084;50.956;3.106;2022-12-07T02:06:10;6.17;;;3.27;;
17917;SDS011;9084;50.956;3.106;2022-12-07T02:08:38;6.60;;;3.50;;
17917;SDS011;9084;50.956;3.106;2022-12-07T02:11:04;6.20;;;3.13;;
17917;SDS011;9084;50.956;3.106;2022-12-07T02:13:33;4.80;;;3.33;;
17917;SDS011;9084;50.956;3.106;2022-12-07T02:33:05;6.70;;;3.27;;
17917;SDS011;9084;50.956;3.106;2022-12-07T02:35:32;6.33;;;3.00;;
17917;SDS011;9084;50.956;3.106;2022-12-07T02:38:31;5.10;;;3.30;;
17917;SDS011;9084;50.956;3.106;2022-12-07T02:41:12;7.03;;;3.73;;
17917;SDS011;9084;50.956;3.106;2022-12-07T02:43:45;4.60;;;3.50;;
17917;SDS011;9084;50.956;3.106;2022-12-07T02:46:15;4.77;;;3.37;;
17917;SDS011;9084;50.956;3.106;2022-12-07T02:48:45;6.20;;;3.57;;
17917;SDS011;9084;50.956;3.106;2022-12-07T02:51:11;6.23;;;3.33;;
17917;SDS011;9084;50.956;3.106;2022-12-07T02:53:38;3.80;;;3.00;;
17917;SDS011;9084;50.956;3.106;2022-12-07T03:04:45;3.53;;;3.23;;
17917;SDS011;9084;50.956;3.106;2022-12-07T03:07:24;6.27;;;3.50;;
17917;SDS011;9084;50.956;3.106;2022-12-07T03:10:03;7.03;;;3.37;;
17917;SDS011;9084;50.956;3.106;2022-12-07T03:12:35;4.80;;;3.07;;
17917;SDS011;9084;50.956;3.106;2022-12-07T03:15:13;11.27;;;3.90;;
17917;SDS011;9084;50.956;3.106;2022-12-07T03:17:46;5.40;;;3.03;;
17917;SDS011;9084;50.956;3.106;2022-12-07T03:20:16;7.90;;;3.70;;
17917;SDS011;9084;50.956;3.106;2022-12-07T03:22:45;6.23;;;3.77;;
17917;SDS011;9084;50.956;3.106;2022-12-07T03:25:13;6.80;;;3.00;;
17917;SDS011;9084;50.956;3.106;2022-12-07T03:28:01;5.73;;;3.13;;
17917;SDS011;9084;50.956;3.106;2022-12-07T03:30:36;4.57;;;3.30;;
17917;SDS011;9084;50.956;3.106;2022-12-07T03:33:49;4.53;;;3.07;;
17917;SDS011;9084;50.956;3.106;2022-12-07T03:36:35;4.30;;;3.30;;
17917;SDS011;9084;50.956;3.106;2022-12-07T03:39:25;8.60;;;3.53;;
17917;SDS011;9084;50.956;3.106;2022-12-07T03:41:53;5.13;;;3.63;;
17917;SDS011;9084;50.956;3.106;2022-12-07T03:44:19;4.30;;;3.30;;
17917;SDS011;9084;50.956;3.106;2022-12-07T03:49:39;5.93;;;2.83;;
17917;SDS011;9084;50.956;3.106;2022-12-07T03:57:28;5.43;;;3.73;;
17917;SDS011;9084;50.956;3.106;2022-12-07T03:59:55;3.63;;;3.10;;
17917;SDS011;9084;50.956;3.106;2022-12-07T04:02:23;4.93;;;3.00;;
17917;SDS011;9084;50.956;3.106;2022-12-07T04:04:51;6.47;;;3.83;;
17917;SDS011;9084;50.956;3.106;2022-12-07T04:07:18;4.50;;;3.20;;
17917;SDS011;9084;50.956;3.106;2022-12-07T04:09:43;3.23;;;2.93;;
17917;SDS011;9084;50.956;3.106;2022-12-07T04:12:10;4.70;;;3.60;;
17917;SDS011;9084;50.956;3.106;2022-12-07T04:14:35;5.43;;;3.60;;
17917;SDS011;9084;50.956;3.106;2022-12-07T04:17:01;4.73;;;3.30;;
17917;SDS011;9084;50.956;3.106;2022-12-07T04:19:28;6.47;;;4.10;;
17917;SDS011;9084;50.956;3.106;2022-12-07T04:21:59;5.40;;;3.60;;
17917;SDS011;9084;50.956;3.106;2022-12-07T04:24:27;6.53;;;4.00;;
17917;SDS011;9084;50.956;3.106;2022-12-07T04:26:54;4.10;;;3.70;;
17917;SDS011;9084;50.956;3.106;2022-12-07T04:29:20;4.87;;;3.20;;
17917;SDS011;9084;50.956;3.106;2022-12-07T04:31:47;5.70;;;3.23;;
17917;SDS011;9084;50.956;3.106;2022-12-07T04:34:14;4.80;;;4.23;;
17917;SDS011;9084;50.956;3.106;2022-12-07T04:36:43;6.60;;;5.00;;
17917;SDS011;9084;50.956;3.106;2022-12-07T04:39:23;9.90;;;5.60;;
17917;SDS011;9084;50.956;3.106;2022-12-07T04:41:54;8.10;;;4.33;;
17917;SDS011;9084;50.956;3.106;2022-12-07T04:44:20;11.50;;;9.20;;
17917;SDS011;9084;50.956;3.106;2022-12-07T04:46:48;5.83;;;5.23;;
17917;SDS011;9084;50.956;3.106;2022-12-07T04:49:14;6.40;;;3.33;;
17917;SDS011;9084;50.956;3.106;2022-12-07T04:51:40;8.30;;;3.53;;
17917;SDS011;9084;50.956;3.106;2022-12-07T04:54:07;6.17;;;2.87;;
17917;SDS011;9084;50.956;3.106;2022-12-07T04:56:33;3.87;;;2.77;;
17917;SDS011;9084;50.956;3.106;2022-12-07T04:59:19;3.93;;;2.60;;
17917;SDS011;9084;50.956;3.106;2022-12-07T05:01:45;4.00;;;2.40;;
17917;SDS011;9084;50.956;3.106;2022-12-07T05:04:14;4.77;;;3.47;;
17917;SDS011;9084;50.956;3.106;2022-12-07T05:06:41;6.70;;;3.00;;
17917;SDS011;9084;50.956;3.106;2022-12-07T05:09:06;3.77;;;2.77;;
17917;SDS011;9084;50.956;3.106;2022-12-07T05:11:32;3.33;;;2.03;;
17917;SDS011;9084;50.956;3.106;2022-12-07T05:14:17;3.47;;;2.23;;
17917;SDS011;9084;50.956;3.106;2022-12-07T05:16:45;4.97;;;2.80;;
17917;SDS011;9084;50.956;3.106;2022-12-07T05:19:12;4.00;;;2.60;;
17917;SDS011;9084;50.956;3.106;2022-12-07T05:21:39;3.90;;;2.30;;
17917;SDS011;9084;50.956;3.106;2022-12-07T05:24:05;3.10;;;2.07;;
17917;SDS011;9084;50.956;3.106;2022-12-07T05:26:32;5.10;;;2.77;;
17917;SDS011;9084;50.956;3.106;2022-12-07T05:28:58;3.83;;;2.97;;
17917;SDS011;9084;50.956;3.106;2022-12-07T05:31:25;4.43;;;2.77;;
17917;SDS011;9084;50.956;3.106;2022-12-07T05:33:51;7.67;;;2.60;;
17917;SDS011;9084;50.956;3.106;2022-12-07T05:36:17;6.07;;;2.50;;
17917;SDS011;9084;50.956;3.106;2022-12-07T05:38:45;3.90;;;2.10;;
17917;SDS011;9084;50.956;3.106;2022-12-07T05:41:12;2.47;;;2.20;;
17917;SDS011;9084;50.956;3.106;2022-12-07T05:43:59;7.37;;;3.00;;
17917;SDS011;9084;50.956;3.106;2022-12-07T05:46:25;3.77;;;2.60;;
17917;SDS011;9084;50.956;3.106;2022-12-07T05:48:51;5.17;;;2.23;;
17917;SDS011;9084;50.956;3.106;2022-12-07T05:51:18;4.27;;;2.13;;
17917;SDS011;9084;50.956;3.106;2022-12-07T05:53:44;5.70;;;2.37;;
17917;SDS011;9084;50.956;3.106;2022-12-07T05:56:10;4.67;;;2.00;;
17917;SDS011;9084;50.956;3.106;2022-12-07T05:58:36;3.40;;;2.00;;
17917;SDS011;9084;50.956;3.106;2022-12-07T06:01:23;5.10;;;2.03;;
17917;SDS011;9084;50.956;3.106;2022-12-07T06:03:49;9.57;;;3.63;;
17917;SDS011;9084;50.956;3.106;2022-12-07T06:06:15;7.23;;;3.60;;
17917;SDS011;9084;50.956;3.106;2022-12-07T06:08:40;7.53;;;3.70;;
17917;SDS011;9084;50.956;3.106;2022-12-07T06:11:06;6.33;;;3.70;;
17917;SDS011;9084;50.956;3.106;2022-12-07T06:13:50;8.10;;;3.27;;
17917;SDS011;9084;50.956;3.106;2022-12-07T06:16:16;5.10;;;2.77;;
17917;SDS011;9084;50.956;3.106;2022-12-07T06:18:42;3.67;;;2.50;;
17917;SDS011;9084;50.956;3.106;2022-12-07T06:21:08;6.60;;;2.70;;
17917;SDS011;9084;50.956;3.106;2022-12-07T06:23:35;7.73;;;3.33;;
17917;SDS011;9084;50.956;3.106;2022-12-07T06:26:03;5.73;;;2.63;;
17917;SDS011;9084;50.956;3.106;2022-12-07T06:28:29;8.57;;;2.97;;
17917;SDS011;9084;50.956;3.106;2022-12-07T06:31:00;4.30;;;2.90;;
17917;SDS011;9084;50.956;3.106;2022-12-07T06:33:29;4.67;;;3.37;;
17917;SDS011;9084;50.956;3.106;2022-12-07T06:35:55;7.80;;;3.20;;
17917;SDS011;9084;50.956;3.106;2022-12-07T06:38:21;2.97;;;2.40;;
17917;SDS011;9084;50.956;3.106;2022-12-07T06:40:46;5.87;;;2.90;;
17917;SDS011;9084;50.956;3.106;2022-12-07T06:43:13;5.13;;;2.60;;
17917;SDS011;9084;50.956;3.106;2022-12-07T06:45:40;6.03;;;2.90;;
17917;SDS011;9084;50.956;3.106;2022-12-07T06:48:08;3.23;;;2.60;;
17917;SDS011;9084;50.956;3.106;2022-12-07T06:50:36;5.77;;;2.80;;
17917;SDS011;9084;50.956;3.106;2022-12-07T06:53:02;5.40;;;3.50;;
17917;SDS011;9084;50.956;3.106;2022-12-07T06:55:28;5.67;;;2.80;;
17917;SDS011;9084;50.956;3.106;2022-12-07T06:57:56;3.30;;;1.87;;
17917;SDS011;9084;50.956;3.106;2022-12-07T07:00:22;7.07;;;2.80;;
17917;SDS011;9084;50.956;3.106;2022-12-07T07:02:49;5.37;;;2.40;;
17917;SDS011;9084;50.956;3.106;2022-12-07T07:05:17;4.90;;;2.43;;
17917;SDS011;9084;50.956;3.106;2022-12-07T07:07:45;4.33;;;3.23;;
17917;SDS011;9084;50.956;3.106;2022-12-07T07:10:11;3.47;;;2.87;;
17917;SDS011;9084;50.956;3.106;2022-12-07T07:12:38;4.33;;;2.30;;
17917;SDS011;9084;50.956;3.106;2022-12-07T07:15:04;5.67;;;2.57;;
17917;SDS011;9084;50.956;3.106;2022-12-07T07:17:30;6.10;;;2.53;;
17917;SDS011;9084;50.956;3.106;2022-12-07T07:19:56;4.47;;;2.63;;
17917;SDS011;9084;50.956;3.106;2022-12-07T07:22:21;4.30;;;2.37;;
17917;SDS011;9084;50.956;3.106;2022-12-07T07:24:47;4.57;;;2.30;;
17917;SDS011;9084;50.956;3.106;2022-12-07T07:27:13;3.63;;;2.13;;
17917;SDS011;9084;50.956;3.106;2022-12-07T07:29:41;5.00;;;2.00;;
17917;SDS011;9084;50.956;3.106;2022-12-07T07:32:07;3.27;;;2.40;;
17917;SDS011;9084;50.956;3.106;2022-12-07T07:34:33;4.97;;;2.40;;
17917;SDS011;9084;50.956;3.106;2022-12-07T07:36:59;9.40;;;2.40;;
17917;SDS011;9084;50.956;3.106;2022-12-07T07:39:24;4.10;;;3.07;;
17917;SDS011;9084;50.956;3.106;2022-12-07T07:41:50;7.90;;;3.43;;
17917;SDS011;9084;50.956;3.106;2022-12-07T07:44:16;4.77;;;2.33;;
17917;SDS011;9084;50.956;3.106;2022-12-07T07:46:41;4.13;;;2.90;;
17917;SDS011;9084;50.956;3.106;2022-12-07T07:49:10;5.00;;;2.47;;
17917;SDS011;9084;50.956;3.106;2022-12-07T07:51:36;7.07;;;2.87;;
17917;SDS011;9084;50.956;3.106;2022-12-07T07:54:02;3.83;;;2.67;;
17917;SDS011;9084;50.956;3.106;2022-12-07T07:56:28;7.53;;;2.87;;
17917;SDS011;9084;50.956;3.106;2022-12-07T07:58:54;4.90;;;2.57;;
17917;SDS011;9084;50.956;3.106;2022-12-07T08:01:20;4.60;;;2.80;;
17917;SDS011;9084;50.956;3.106;2022-12-07T08:03:46;7.73;;;2.60;;
17917;SDS011;9084;50.956;3.106;2022-12-07T08:06:12;4.93;;;2.57;;
17917;SDS011;9084;50.956;3.106;2022-12-07T08:08:38;6.03;;;2.70;;
17917;SDS011;9084;50.956;3.106;2022-12-07T08:11:08;7.37;;;2.60;;
17917;SDS011;9084;50.956;3.106;2022-12-07T08:13:36;7.03;;;4.23;;
17917;SDS011;9084;50.956;3.106;2022-12-07T08:16:06;8.10;;;4.83;;
17917;SDS011;9084;50.956;3.106;2022-12-07T08:18:37;6.63;;;3.57;;
17917;SDS011;9084;50.956;3.106;2022-12-07T08:21:05;5.30;;;2.77;;
17917;SDS011;9084;50.956;3.106;2022-12-07T08:23:33;10.27;;;2.37;;
17917;SDS011;9084;50.956;3.106;2022-12-07T08:26:03;3.40;;;1.80;;
17917;SDS011;9084;50.956;3.106;2022-12-07T08:28:32;2.87;;;1.53;;
17917;SDS011;9084;50.956;3.106;2022-12-07T08:31:08;3.67;;;1.57;;
17917;SDS011;9084;50.956;3.106;2022-12-07T08:33:37;5.53;;;1.47;;
17917;SDS011;9084;50.956;3.106;2022-12-07T08:36:04;1.90;;;1.20;;
17917;SDS011;9084;50.956;3.106;2022-12-07T08:38:33;4.70;;;1.27;;
17917;SDS011;9084;50.956;3.106;2022-12-07T08:40:59;5.03;;;1.53;;
17917;SDS011;9084;50.956;3.106;2022-12-07T08:43:26;4.13;;;1.30;;
17917;SDS011;9084;50.956;3.106;2022-12-07T08:45:55;2.27;;;1.00;;
17917;SDS011;9084;50.956;3.106;2022-12-07T08:48:22;1.47;;;0.77;;
17917;SDS011;9084;50.956;3.106;2022-12-07T08:50:49;2.63;;;0.80;;
17917;SDS011;9084;50.956;3.106;2022-12-07T08:53:16;4.40;;;1.10;;
17917;SDS011;9084;50.956;3.106;2022-12-07T08:55:43;3.30;;;1.97;;
17917;SDS011;9084;50.956;3.106;2022-12-07T08:58:10;5.17;;;2.13;;
17917;SDS011;9084;50.956;3.106;2022-12-07T09:00:39;3.43;;;1.73;;
17917;SDS011;9084;50.956;3.106;2022-12-07T09:03:05;3.23;;;1.87;;
17917;SDS011;9084;50.956;3.106;2022-12-07T09:05:32;2.33;;;1.87;;
17917;SDS011;9084;50.956;3.106;2022-12-07T09:07:59;3.87;;;1.67;;
17917;SDS011;9084;50.956;3.106;2022-12-07T09:10:28;3.73;;;1.70;;
17917;SDS011;9084;50.956;3.106;2022-12-07T09:12:54;2.90;;;2.00;;
17917;SDS011;9084;50.956;3.106;2022-12-07T09:15:20;3.43;;;2.00;;
17917;SDS011;9084;50.956;3.106;2022-12-07T09:17:49;2.97;;;2.00;;
17917;SDS011;9084;50.956;3.106;2022-12-07T09:20:14;3.57;;;1.80;;
17917;SDS011;9084;50.956;3.106;2022-12-07T09:22:43;2.83;;;1.60;;
17917;SDS011;9084;50.956;3.106;2022-12-07T09:25:09;2.93;;;1.17;;
17917;SDS011;9084;50.956;3.106;2022-12-07T09:27:34;1.20;;;1.00;;
17917;SDS011;9084;50.956;3.106;2022-12-07T09:30:03;2.03;;;1.00;;
17917;SDS011;9084;50.956;3.106;2022-12-07T09:32:30;3.93;;;1.23;;
17917;SDS011;9084;50.956;3.106;2022-12-07T09:34:56;1.67;;;1.10;;
17917;SDS011;9084;50.956;3.106;2022-12-07T09:37:21;1.67;;;1.00;;
17917;SDS011;9084;50.956;3.106;2022-12-07T09:39:47;4.53;;;1.47;;
17917;SDS011;9084;50.956;3.106;2022-12-07T09:42:28;3.90;;;1.60;;
17917;SDS011;9084;50.956;3.106;2022-12-07T09:44:58;3.80;;;1.90;;
17917;SDS011;9084;50.956;3.106;2022-12-07T09:47:25;2.70;;;1.87;;
17917;SDS011;9084;50.956;3.106;2022-12-07T09:49:51;5.93;;;2.10;;
17917;SDS011;9084;50.956;3.106;2022-12-07T09:52:25;3.07;;;2.00;;
17917;SDS011;9084;50.956;3.106;2022-12-07T09:54:53;2.60;;;2.07;;
17917;SDS011;9084;50.956;3.106;2022-12-07T09:57:28;6.17;;;1.70;;
17917;SDS011;9084;50.956;3.106;2022-12-07T10:00:00;3.37;;;1.73;;
17917;SDS011;9084;50.956;3.106;2022-12-07T10:05:04;2.80;;;1.40;;
17917;SDS011;9084;50.956;3.106;2022-12-07T10:07:44;1.70;;;1.40;;
17917;SDS011;9084;50.956;3.106;2022-12-07T10:10:15;4.97;;;1.60;;
17917;SDS011;9084;50.956;3.106;2022-12-07T10:12:53;2.17;;;1.40;;
17917;SDS011;9084;50.956;3.106;2022-12-07T10:23:30;4.93;;;1.77;;
17917;SDS011;9084;50.956;3.106;2022-12-07T10:25:56;4.70;;;1.70;;
17917;SDS011;9084;50.956;3.106;2022-12-07T10:28:22;4.53;;;1.20;;
17917;SDS011;9084;50.956;3.106;2022-12-07T10:30:59;4.43;;;1.33;;
17917;SDS011;9084;50.956;3.106;2022-12-07T10:33:35;4.83;;;2.07;;
17917;SDS011;9084;50.956;3.106;2022-12-07T10:38:59;1.70;;;0.90;;
17917;SDS011;9084;50.956;3.106;2022-12-07T10:41:38;6.13;;;1.67;;
17917;SDS011;9084;50.956;3.106;2022-12-07T10:44:29;4.33;;;1.83;;
17917;SDS011;9084;50.956;3.106;2022-12-07T10:52:15;2.57;;;1.40;;
17917;SDS011;9084;50.956;3.106;2022-12-07T10:55:06;6.33;;;1.90;;
17917;SDS011;9084;50.956;3.106;2022-12-07T11:00:49;4.03;;;2.27;;
17917;SDS011;9084;50.956;3.106;2022-12-07T11:06:00;5.03;;;3.30;;
17917;SDS011;9084;50.956;3.106;2022-12-07T11:17:10;5.47;;;2.43;;
17917;SDS011;9084;50.956;3.106;2022-12-07T11:22:56;4.47;;;1.83;;
17917;SDS011;9084;50.956;3.106;2022-12-07T11:25:38;3.27;;;2.53;;
17917;SDS011;9084;50.956;3.106;2022-12-07T11:30:48;2.60;;;1.20;;
17917;SDS011;9084;50.956;3.106;2022-12-07T11:33:43;3.67;;;1.67;;
17917;SDS011;9084;50.956;3.106;2022-12-07T11:36:30;4.67;;;1.10;;
17917;SDS011;9084;50.956;3.106;2022-12-07T11:42:06;2.07;;;0.70;;
17917;SDS011;9084;50.956;3.106;2022-12-07T11:44:45;2.20;;;0.57;;
17917;SDS011;9084;50.956;3.106;2022-12-07T11:50:20;2.97;;;1.10;;
17917;SDS011;9084;50.956;3.106;2022-12-07T12:06:22;2.67;;;0.77;;
17917;SDS011;9084;50.956;3.106;2022-12-07T12:16:35;4.93;;;0.90;;
17917;SDS011;9084;50.956;3.106;2022-12-07T12:19:23;2.70;;;0.93;;
17917;SDS011;9084;50.956;3.106;2022-12-07T12:21:55;1.83;;;0.90;;
17917;SDS011;9084;50.956;3.106;2022-12-07T12:24:28;3.13;;;0.83;;
17917;SDS011;9084;50.956;3.106;2022-12-07T12:26:59;4.53;;;1.00;;
17917;SDS011;9084;50.956;3.106;2022-12-07T12:29:35;3.30;;;0.80;;
17917;SDS011;9084;50.956;3.106;2022-12-07T12:32:18;2.93;;;1.30;;
17917;SDS011;9084;50.956;3.106;2022-12-07T12:42:55;3.63;;;1.10;;
17917;SDS011;9084;50.956;3.106;2022-12-07T12:45:23;5.40;;;1.40;;
17917;SDS011;9084;50.956;3.106;2022-12-07T12:47:54;3.43;;;1.60;;
17917;SDS011;9084;50.956;3.106;2022-12-07T12:50:49;4.57;;;2.20;;
17917;SDS011;9084;50.956;3.106;2022-12-07T12:54:03;4.30;;;1.97;;
17917;SDS011;9084;50.956;3.106;2022-12-07T12:59:37;4.50;;;1.70;;
17917;SDS011;9084;50.956;3.106;2022-12-07T13:05:14;7.30;;;1.63;;
17917;SDS011;9084;50.956;3.106;2022-12-07T13:15:48;2.80;;;1.20;;
17917;SDS011;9084;50.956;3.106;2022-12-07T13:21:00;4.10;;;0.93;;
17917;SDS011;9084;50.956;3.106;2022-12-07T13:23:27;2.93;;;1.23;;
17917;SDS011;9084;50.956;3.106;2022-12-07T13:26:16;4.33;;;1.07;;
17917;SDS011;9084;50.956;3.106;2022-12-07T13:28:44;2.60;;;1.27;;
17917;SDS011;9084;50.956;3.106;2022-12-07T13:31:32;4.93;;;1.13;;
17917;SDS011;9084;50.956;3.106;2022-12-07T13:34:01;2.70;;;1.20;;
17917;SDS011;9084;50.956;3.106;2022-12-07T13:36:30;2.47;;;0.90;;
17917;SDS011;9084;50.956;3.106;2022-12-07T13:42:06;4.07;;;1.37;;
17917;SDS011;9084;50.956;3.106;2022-12-07T13:44:42;2.80;;;0.90;;
17917;SDS011;9084;50.956;3.106;2022-12-07T13:50:25;2.90;;;0.80;;
17917;SDS011;9084;50.956;3.106;2022-12-07T13:52:54;2.93;;;0.80;;
17917;SDS011;9084;50.956;3.106;2022-12-07T13:55:23;2.27;;;0.90;;
17917;SDS011;9084;50.956;3.106;2022-12-07T13:57:51;2.53;;;0.60;;
17917;SDS011;9084;50.956;3.106;2022-12-07T14:00:19;2.27;;;0.60;;
17917;SDS011;9084;50.956;3.106;2022-12-07T14:02:57;2.70;;;0.90;;
17917;SDS011;9084;50.956;3.106;2022-12-07T14:05:26;1.60;;;0.73;;
17917;SDS011;9084;50.956;3.106;2022-12-07T14:07:56;2.70;;;1.47;;
17917;SDS011;9084;50.956;3.106;2022-12-07T14:12:52;4.40;;;2.30;;
17917;SDS011;9084;50.956;3.106;2022-12-07T14:15:23;4.13;;;3.27;;
17917;SDS011;9084;50.956;3.106;2022-12-07T14:17:56;7.07;;;4.53;;
17917;SDS011;9084;50.956;3.106;2022-12-07T14:23:01;3.67;;;2.27;;
17917;SDS011;9084;50.956;3.106;2022-12-07T14:25:44;3.67;;;2.17;;
17917;SDS011;9084;50.956;3.106;2022-12-07T14:28:27;2.83;;;1.90;;
17917;SDS011;9084;50.956;3.106;2022-12-07T14:30:58;7.13;;;4.90;;
17917;SDS011;9084;50.956;3.106;2022-12-07T14:33:25;3.20;;;2.90;;
17917;SDS011;9084;50.956;3.106;2022-12-07T14:35:52;6.57;;;4.30;;
17917;SDS011;9084;50.956;3.106;2022-12-07T14:38:22;5.50;;;4.83;;
17917;SDS011;9084;50.956;3.106;2022-12-07T14:40:49;5.67;;;2.83;;
17917;SDS011;9084;50.956;3.106;2022-12-07T14:43:16;5.87;;;2.47;;
17917;SDS011;9084;50.956;3.106;2022-12-07T14:45:43;5.73;;;2.67;;
17917;SDS011;9084;50.956;3.106;2022-12-07T14:48:12;9.43;;;3.20;;
17917;SDS011;9084;50.956;3.106;2022-12-07T14:50:48;2.60;;;1.77;;
17917;SDS011;9084;50.956;3.106;2022-12-07T14:53:20;2.13;;;1.17;;
17917;SDS011;9084;50.956;3.106;2022-12-07T14:55:53;2.40;;;0.97;;
17917;SDS011;9084;50.956;3.106;2022-12-07T14:58:19;2.37;;;0.90;;
17917;SDS011;9084;50.956;3.106;2022-12-07T15:00:50;0.77;;;0.40;;
17917;SDS011;9084;50.956;3.106;2022-12-07T15:03:15;0.57;;;0.50;;
17917;SDS011;9084;50.956;3.106;2022-12-07T15:05:41;0.60;;;0.60;;
17917;SDS011;9084;50.956;3.106;2022-12-07T15:08:11;2.67;;;1.60;;
17917;SDS011;9084;50.956;3.106;2022-12-07T15:10:38;2.57;;;1.10;;
17917;SDS011;9084;50.956;3.106;2022-12-07T15:13:05;4.10;;;1.60;;
17917;SDS011;9084;50.956;3.106;2022-12-07T15:15:50;2.57;;;1.30;;
17917;SDS011;9084;50.956;3.106;2022-12-07T15:18:17;3.80;;;1.27;;
17917;SDS011;9084;50.956;3.106;2022-12-07T15:20:44;6.23;;;2.63;;
17917;SDS011;9084;50.956;3.106;2022-12-07T15:23:10;2.90;;;1.93;;
17917;SDS011;9084;50.956;3.106;2022-12-07T15:25:36;2.13;;;1.37;;
17917;SDS011;9084;50.956;3.106;2022-12-07T15:28:07;3.27;;;1.53;;
17917;SDS011;9084;50.956;3.106;2022-12-07T15:30:33;3.13;;;1.53;;
17917;SDS011;9084;50.956;3.106;2022-12-07T15:32:59;3.23;;;2.30;;
17917;SDS011;9084;50.956;3.106;2022-12-07T15:35:25;5.50;;;2.67;;
17917;SDS011;9084;50.956;3.106;2022-12-07T15:37:50;3.70;;;2.00;;
17917;SDS011;9084;50.956;3.106;2022-12-07T15:40:16;2.73;;;2.00;;
17917;SDS011;9084;50.956;3.106;2022-12-07T15:42:42;4.57;;;2.00;;
17917;SDS011;9084;50.956;3.106;2022-12-07T15:45:07;5.20;;;3.67;;
17917;SDS011;9084;50.956;3.106;2022-12-07T15:47:35;5.00;;;4.07;;
17917;SDS011;9084;50.956;3.106;2022-12-07T15:50:08;8.47;;;4.27;;
17917;SDS011;9084;50.956;3.106;2022-12-07T15:52:37;8.67;;;4.87;;
17917;SDS011;9084;50.956;3.106;2022-12-07T15:55:03;5.70;;;3.23;;
17917;SDS011;9084;50.956;3.106;2022-12-07T15:57:30;3.83;;;3.07;;
17917;SDS011;9084;50.956;3.106;2022-12-07T15:59:59;6.83;;;4.97;;
17917;SDS011;9084;50.956;3.106;2022-12-07T16:02:28;8.13;;;4.47;;
17917;SDS011;9084;50.956;3.106;2022-12-07T16:04:53;6.83;;;3.40;;
17917;SDS011;9084;50.956;3.106;2022-12-07T16:07:19;7.97;;;3.17;;
17917;SDS011;9084;50.956;3.106;2022-12-07T16:09:45;2.50;;;1.90;;
17917;SDS011;9084;50.956;3.106;2022-12-07T16:12:14;3.80;;;2.07;;
17917;SDS011;9084;50.956;3.106;2022-12-07T16:14:40;6.60;;;2.47;;
17917;SDS011;9084;50.956;3.106;2022-12-07T16:17:06;8.00;;;2.53;;
17917;SDS011;9084;50.956;3.106;2022-12-07T16:19:33;4.80;;;1.93;;
17917;SDS011;9084;50.956;3.106;2022-12-07T16:21:59;2.70;;;1.80;;
17917;SDS011;9084;50.956;3.106;2022-12-07T16:24:25;3.77;;;2.00;;
17917;SDS011;9084;50.956;3.106;2022-12-07T16:26:51;3.20;;;1.70;;
17917;SDS011;9084;50.956;3.106;2022-12-07T16:29:18;2.93;;;2.03;;
17917;SDS011;9084;50.956;3.106;2022-12-07T16:31:48;1.90;;;1.70;;
17917;SDS011;9084;50.956;3.106;2022-12-07T16:34:14;3.00;;;1.80;;
17917;SDS011;9084;50.956;3.106;2022-12-07T16:36:40;3.97;;;2.70;;
17917;SDS011;9084;50.956;3.106;2022-12-07T16:39:06;3.17;;;1.70;;
17917;SDS011;9084;50.956;3.106;2022-12-07T16:41:32;3.40;;;1.47;;
17917;SDS011;9084;50.956;3.106;2022-12-07T16:44:01;3.60;;;1.80;;
17917;SDS011;9084;50.956;3.106;2022-12-07T16:46:32;2.83;;;1.73;;
17917;SDS011;9084;50.956;3.106;2022-12-07T16:48:58;2.00;;;1.77;;
17917;SDS011;9084;50.956;3.106;2022-12-07T16:51:24;3.70;;;2.67;;
17917;SDS011;9084;50.956;3.106;2022-12-07T16:53:50;3.37;;;1.97;;
17917;SDS011;9084;50.956;3.106;2022-12-07T16:56:19;3.33;;;1.70;;
17917;SDS011;9084;50.956;3.106;2022-12-07T16:58:46;3.03;;;1.67;;
17917;SDS011;9084;50.956;3.106;2022-12-07T17:01:14;4.30;;;2.20;;
17917;SDS011;9084;50.956;3.106;2022-12-07T17:03:44;5.40;;;3.33;;
17917;SDS011;9084;50.956;3.106;2022-12-07T17:06:12;4.50;;;2.90;;
17917;SDS011;9084;50.956;3.106;2022-12-07T17:08:39;3.53;;;2.43;;
17917;SDS011;9084;50.956;3.106;2022-12-07T17:11:15;3.90;;;2.70;;
17917;SDS011;9084;50.956;3.106;2022-12-07T17:13:45;2.63;;;2.27;;
17917;SDS011;9084;50.956;3.106;2022-12-07T17:16:32;4.13;;;2.27;;
17917;SDS011;9084;50.956;3.106;2022-12-07T17:19:05;4.57;;;2.60;;
17917;SDS011;9084;50.956;3.106;2022-12-07T17:21:34;4.57;;;2.50;;
17917;SDS011;9084;50.956;3.106;2022-12-07T17:24:04;2.60;;;2.20;;
17917;SDS011;9084;50.956;3.106;2022-12-07T17:26:32;2.67;;;2.40;;
17917;SDS011;9084;50.956;3.106;2022-12-07T17:29:02;8.27;;;5.70;;
17917;SDS011;9084;50.956;3.106;2022-12-07T17:31:30;6.60;;;5.23;;
17917;SDS011;9084;50.956;3.106;2022-12-07T17:33:57;6.00;;;3.97;;